Time;durP1;ratioP1;P1;durP2;ratioP2;P2;SDS_P1;SDS_P2;PMS_P1;PMS_P2;Temp;Humidity;BMP_temperature;BMP_pressure;BME280_temperature;BME280_humidity;BME280_pressure;Samples;Min_cycle;Max_cycle;Signal;HPM_P1;HPM_P2
2022/01/15 00:00:21;;;;;;;0.80;0.80;;;;;;;8.74;50.90;98295.13;1841475;77;21455;-63
2022/01/15 00:02:47;;;;;;;1.75;1.10;;;;;;;8.73;50.90;98305.39;1824720;77;21028;-63
2022/01/15 00:05:14;;;;;;;1.07;0.80;;;;;;;8.72;50.91;98295.31;1816744;76;23250;-63
2022/01/15 00:07:42;;;;;;;1.22;0.80;;;;;;;8.72;50.91;98297.96;1829923;77;21040;-63
2022/01/15 00:10:08;;;;;;;1.55;0.80;;;;;;;8.72;50.88;98292.66;1839332;77;21107;-64
2022/01/15 00:12:40;;;;;;;1.40;0.90;;;;;;;8.72;50.90;98301.13;1829485;77;21048;-62
2022/01/15 00:15:07;;;;;;;1.57;0.70;;;;;;;8.73;50.87;98300.94;1819175;77;20989;-62
2022/01/15 00:17:51;;;;;;;1.00;0.85;;;;;;;8.73;50.86;98304.91;1826492;77;21025;-63
2022/01/15 00:20:16;;;;;;;1.70;1.00;;;;;;;8.72;50.83;98312.52;1823108;77;21227;-63
2022/01/15 00:22:43;;;;;;;1.62;0.80;;;;;;;8.72;50.85;98303.26;1838487;77;21017;-63
2022/01/15 00:25:11;;;;;;;1.00;0.82;;;;;;;8.73;50.87;98318.63;1844498;77;21069;-61
2022/01/15 00:27:39;;;;;;;1.47;0.80;;;;;;;8.72;50.86;98323.12;1824652;77;21021;-63
2022/01/15 00:30:07;;;;;;;1.45;0.90;;;;;;;8.73;50.86;98309.36;1813481;78;21844;-63
2022/01/15 00:32:34;;;;;;;0.80;0.80;;;;;;;8.72;50.85;98329.73;1824142;78;21018;-64
2022/01/15 00:35:00;;;;;;;1.40;0.90;;;;;;;8.73;50.83;98343.78;1828056;78;21057;-63
2022/01/15 00:37:31;;;;;;;1.15;0.80;;;;;;;8.72;50.84;98333.70;1815530;77;21008;-62
2022/01/15 00:39:58;;;;;;;1.42;0.90;;;;;;;8.74;50.82;98333.52;1819344;78;21017;-64
2022/01/15 00:42:26;;;;;;;1.27;0.88;;;;;;;8.74;50.79;98358.16;1823204;78;21153;-64
2022/01/15 00:44:53;;;;;;;1.50;0.75;;;;;;;8.74;50.78;98343.60;1817545;78;21565;-63
2022/01/15 00:47:19;;;;;;;1.50;1.00;;;;;;;8.74;50.76;98347.57;1809753;78;20992;-63
2022/01/15 00:49:47;;;;;;;1.07;0.90;;;;;;;8.74;50.77;98354.19;1812659;78;21451;-63
2022/01/15 00:52:13;;;;;;;1.92;1.00;;;;;;;8.74;50.78;98350.22;1811216;78;20989;-64
2022/01/15 00:54:40;;;;;;;2.12;0.88;;;;;;;8.74;50.75;98343.60;1812873;78;21236;-64
2022/01/15 00:57:07;;;;;;;1.27;0.90;;;;;;;8.73;50.77;98349.92;1816086;78;21002;-63
2022/01/15 00:59:33;;;;;;;1.77;1.07;;;;;;;8.74;50.76;98360.81;1813850;77;20982;-63
2022/01/15 01:01:59;;;;;;;1.25;0.78;;;;;;;8.76;50.75;98352.69;1822204;76;21629;-62
2022/01/15 01:04:26;;;;;;;0.98;0.90;;;;;;;8.75;50.74;98360.30;1810993;78;21048;-63
2022/01/15 01:06:52;;;;;;;1.10;0.75;;;;;;;8.75;50.74;98364.27;1814599;78;21125;-62
2022/01/15 01:09:19;;;;;;;0.60;0.60;;;;;;;8.75;50.71;98361.14;1816974;77;21431;-61
2022/01/15 01:11:55;;;;;;;1.12;0.90;;;;;;;8.75;50.71;98366.91;1820944;78;21057;-63
2022/01/15 01:20:03;;;;;;;0.95;0.80;;;;;;;8.75;50.70;98369.09;1825416;78;21192;-63
2022/01/15 01:24:56;;;;;;;1.72;1.07;;;;;;;8.74;50.69;98381.99;1815846;78;21029;-64
2022/01/15 01:27:30;;;;;;;1.10;1.00;;;;;;;8.74;50.69;98389.94;1830598;77;21788;-64
2022/01/15 01:30:09;;;;;;;1.42;1.10;;;;;;;8.73;50.69;98361.84;1819120;77;21050;-62
2022/01/15 01:32:39;;;;;;;1.12;0.90;;;;;;;8.74;50.69;98387.28;1813185;77;21127;-62
2022/01/15 01:34:54;;;;;;;0.90;0.90;;;;;;;8.73;50.69;98384.83;1806396;77;21021;-63
2022/01/15 01:37:33;;;;;;;1.75;0.70;;;;;;;8.74;50.69;98394.42;1832136;77;21057;-63
2022/01/15 01:39:53;;;;;;;1.57;0.80;;;;;;;8.75;50.68;98390.75;1838353;77;21458;-63
2022/01/15 01:45:10;;;;;;;0.85;0.78;;;;;;;8.74;50.66;98395.75;1826952;76;21006;-63
2022/01/15 01:47:41;;;;;;;1.12;0.80;;;;;;;8.73;50.65;98413.47;1827327;77;21029;-63
2022/01/15 01:50:11;;;;;;;1.47;0.88;;;;;;;8.74;50.66;98403.69;1833112;76;20990;-63
2022/01/15 01:52:38;;;;;;;0.90;0.80;;;;;;;8.72;50.65;98405.20;1828576;76;21029;-64
2022/01/15 01:55:07;;;;;;;1.32;0.75;;;;;;;8.72;50.67;98413.65;1831016;77;20974;-62
2022/01/15 01:57:33;;;;;;;1.30;1.20;;;;;;;8.73;50.65;98421.89;1844668;77;21174;-62
2022/01/15 02:00:04;;;;;;;0.82;0.80;;;;;;;8.73;50.64;98425.38;1835417;77;21611;-61
2022/01/15 02:02:32;;;;;;;1.42;0.90;;;;;;;8.74;50.62;98438.92;1825218;77;21777;-62
2022/01/15 02:04:58;;;;;;;1.77;0.72;;;;;;;8.73;50.64;98454.51;1823906;76;21022;-63
2022/01/15 02:07:26;;;;;;;1.30;0.90;;;;;;;8.73;50.62;98443.91;1824456;77;21032;-62
2022/01/15 02:09:54;;;;;;;1.95;0.90;;;;;;;8.73;50.64;98447.89;1819634;77;21146;-62
2022/01/15 02:12:20;;;;;;;0.80;0.60;;;;;;;8.72;50.63;98458.15;1765687;80;21026;-61
2022/01/15 02:14:46;;;;;;;1.22;1.10;;;;;;;8.73;50.64;98459.80;1784359;79;20979;-63
2022/01/15 02:17:17;;;;;;;1.10;1.00;;;;;;;8.72;50.64;98463.45;1804883;79;21023;-62
2022/01/15 02:20:08;;;;;;;0.90;0.82;;;;;;;8.72;50.65;98464.77;1779395;79;21459;-64
2022/01/15 02:24:58;;;;;;;1.27;1.00;;;;;;;8.72;50.64;98489.92;1783449;79;21061;-62
2022/01/15 02:27:25;;;;;;;1.60;0.90;;;;;;;8.72;50.64;98496.54;1784241;78;21479;-62
2022/01/15 02:29:51;;;;;;;0.80;0.80;;;;;;;8.71;50.64;98493.59;1846154;77;20997;-63
2022/01/15 02:32:17;;;;;;;2.30;0.80;;;;;;;8.72;50.64;98504.48;1853860;77;21040;-63
2022/01/15 02:34:44;;;;;;;1.12;0.80;;;;;;;8.72;50.65;98491.76;1846715;77;21067;-63
2022/01/15 02:37:10;;;;;;;1.10;0.90;;;;;;;8.71;50.64;98484.81;1830438;77;21029;-63
2022/01/15 02:39:37;;;;;;;1.02;0.78;;;;;;;8.70;50.63;98485.32;1842882;77;21081;-62
2022/01/15 02:42:04;;;;;;;2.10;0.90;;;;;;;8.71;50.63;98480.36;1848208;77;21072;-63
2022/01/15 02:44:37;;;;;;;0.85;0.70;;;;;;;8.70;50.65;98487.97;1844087;75;21045;-63
2022/01/15 02:49:26;;;;;;;1.98;1.10;;;;;;;8.70;50.63;98485.32;1823649;77;21557;-62
2022/01/15 02:51:52;;;;;;;1.22;0.75;;;;;;;8.70;50.66;98499.88;1833046;77;21040;-62
2022/01/15 02:54:19;;;;;;;0.82;0.80;;;;;;;8.69;50.66;98504.84;1853446;77;20998;-63
2022/01/15 02:56:45;;;;;;;1.45;1.15;;;;;;;8.69;50.69;98506.17;1847076;75;21059;-62
2022/01/15 02:59:24;;;;;;;1.22;0.85;;;;;;;8.69;50.66;98506.17;1827947;77;21196;-63
2022/01/15 03:01:51;;;;;;;2.87;0.98;;;;;;;8.68;50.67;98501.90;1850791;77;20982;-62
2022/01/15 03:04:18;;;;;;;1.77;1.00;;;;;;;8.68;50.67;98521.75;1843280;76;20995;-62
2022/01/15 03:06:45;;;;;;;1.10;0.80;;;;;;;8.68;50.68;98521.75;1829573;77;21080;-62
2022/01/15 03:09:12;;;;;;;1.47;0.95;;;;;;;8.68;50.69;98528.89;1834747;77;21056;-63
2022/01/15 03:11:40;;;;;;;1.00;0.90;;;;;;;8.68;50.68;98536.83;1835989;77;21226;-63
2022/01/15 03:14:07;;;;;;;1.20;0.90;;;;;;;8.68;50.67;98536.31;1830502;77;21040;-61
2022/01/15 03:16:33;;;;;;;2.35;0.95;;;;;;;8.66;50.69;98537.82;1825267;77;21013;-63
2022/01/15 03:18:59;;;;;;;1.20;0.80;;;;;;;8.67;50.69;98521.42;1826067;77;21046;-62
2022/01/15 03:21:25;;;;;;;1.50;0.82;;;;;;;8.67;50.69;98521.42;1828996;77;21053;-63
2022/01/15 03:23:52;;;;;;;1.22;0.98;;;;;;;8.66;50.70;98529.06;1839347;77;21172;-63
2022/01/15 03:26:18;;;;;;;1.43;1.10;;;;;;;8.66;50.70;98534.36;1851810;77;21630;-62
2022/01/15 03:28:45;;;;;;;1.05;0.90;;;;;;;8.66;50.70;98537.82;1832853;77;21061;-62
2022/01/15 03:31:12;;;;;;;1.52;1.00;;;;;;;8.65;50.70;98541.48;1835127;77;21521;-62
2022/01/15 03:33:38;;;;;;;1.12;0.80;;;;;;;8.65;50.70;98548.11;1822652;77;21031;-63
2022/01/15 03:36:05;;;;;;;1.50;1.20;;;;;;;8.65;50.70;98541.97;1832668;77;21085;-62
2022/01/15 03:38:31;;;;;;;1.57;1.00;;;;;;;8.65;50.70;98545.45;1817877;77;21577;-63
2022/01/15 03:40:58;;;;;;;1.15;0.88;;;;;;;8.65;50.70;98541.97;1832931;77;20998;-64
2022/01/15 03:43:24;;;;;;;1.72;0.90;;;;;;;8.65;50.70;98553.41;1826297;77;21020;-62
2022/01/15 03:45:50;;;;;;;2.42;1.20;;;;;;;8.66;50.68;98538.33;1830879;77;21004;-63
2022/01/15 03:48:17;;;;;;;1.07;0.78;;;;;;;8.65;50.67;98545.94;1828984;77;21262;-62
2022/01/15 03:50:45;;;;;;;1.52;0.98;;;;;;;8.65;50.68;98551.23;1814990;77;21064;-63
2022/01/15 03:53:11;;;;;;;1.07;1.00;;;;;;;8.65;50.69;98547.27;1829537;76;21072;-62
2022/01/15 03:55:38;;;;;;;2.15;1.00;;;;;;;8.65;50.69;98543.29;1835416;77;21475;-63
2022/01/15 03:58:04;;;;;;;1.42;0.95;;;;;;;8.65;50.69;98547.27;1818727;77;21041;-62
2022/01/15 04:00:31;;;;;;;1.22;1.00;;;;;;;8.65;50.68;98551.23;1819041;77;21103;-63
2022/01/15 04:02:58;;;;;;;0.85;0.80;;;;;;;8.64;50.69;98551.74;1833598;77;20998;-62
2022/01/15 04:05:24;;;;;;;0.75;0.75;;;;;;;8.65;50.66;98549.91;1832536;77;21540;-63
2022/01/15 04:07:51;;;;;;;1.45;1.07;;;;;;;8.65;50.67;98548.59;1840824;77;20986;-64
2022/01/15 04:10:19;;;;;;;0.93;0.85;;;;;;;8.65;50.67;98561.83;1829465;77;21599;-62
2022/01/15 04:12:45;;;;;;;1.15;0.80;;;;;;;8.66;50.62;98552.89;1814512;77;21135;-65
2022/01/15 04:15:15;;;;;;;1.05;0.82;;;;;;;8.65;50.61;98541.48;1822351;77;21006;-62
2022/01/15 04:17:44;;;;;;;1.65;0.80;;;;;;;8.65;50.62;98560.02;1831788;77;21352;-63
2022/01/15 04:20:12;;;;;;;1.42;0.90;;;;;;;8.66;50.61;98553.70;1836030;76;22169;-62
2022/01/15 04:22:39;;;;;;;2.47;1.15;;;;;;;8.65;50.62;98560.50;1821406;77;21045;-64
2022/01/15 04:25:07;;;;;;;1.25;0.70;;;;;;;8.65;50.61;98557.38;1837062;76;21199;-63
2022/01/15 04:27:37;;;;;;;1.00;0.90;;;;;;;8.65;50.59;98562.67;1831001;77;20986;-62
2022/01/15 04:30:06;;;;;;;1.62;0.72;;;;;;;8.65;50.61;98553.41;1821853;78;21017;-62
2022/01/15 04:32:33;;;;;;;1.60;0.98;;;;;;;8.66;50.59;98552.89;1829371;78;21036;-63
2022/01/15 04:34:59;;;;;;;1.52;0.90;;;;;;;8.66;50.59;98562.16;1828453;78;21081;-61
2022/01/15 04:37:35;;;;;;;1.32;0.82;;;;;;;8.65;50.60;98567.97;1815894;77;21573;-62
2022/01/15 04:39:55;;;;;;;1.17;1.00;;;;;;;8.66;50.58;98564.80;1822304;78;21649;-62
2022/01/15 04:43:16;;;;;;;1.75;1.10;;;;;;;8.72;50.57;98561.92;1812070;78;28422;-62
2022/01/15 04:45:43;;;;;;;0.85;0.78;;;;;;;8.67;50.54;98561.13;1783105;80;20915;-62
2022/01/15 04:48:09;;;;;;;1.92;1.10;;;;;;;8.68;50.53;98569.92;1768557;80;21050;-62
2022/01/15 04:50:36;;;;;;;2.25;1.05;;;;;;;8.68;50.53;98572.06;1771544;80;21081;-62
2022/01/15 04:53:04;;;;;;;1.65;0.90;;;;;;;8.69;50.52;98571.03;1762905;80;21065;-62
2022/01/15 04:55:32;;;;;;;1.10;1.00;;;;;;;8.68;50.51;98578.68;1777821;80;21017;-61
2022/01/15 04:57:58;;;;;;;1.35;1.02;;;;;;;8.69;50.51;98579.48;1769458;80;21044;-62
2022/01/15 05:00:24;;;;;;;1.65;0.90;;;;;;;8.68;50.51;98584.48;1778679;80;21128;-62
2022/01/15 05:02:51;;;;;;;1.25;0.85;;;;;;;8.68;50.52;98577.86;1718119;83;21475;-63
2022/01/15 05:05:17;;;;;;;1.30;0.90;;;;;;;8.68;50.51;98577.86;1711617;82;21069;-63
2022/01/15 05:07:44;;;;;;;1.52;0.93;;;;;;;8.68;50.50;98583.97;1719234;82;21062;-62
2022/01/15 05:10:13;;;;;;;1.07;0.90;;;;;;;8.68;50.50;98586.62;1705006;82;21051;-62
2022/01/15 05:12:43;;;;;;;1.60;1.20;;;;;;;8.69;50.49;98600.67;1712455;82;21831;-61
2022/01/15 05:15:09;;;;;;;1.00;0.90;;;;;;;8.69;50.49;98584.27;1743062;81;21561;-62
2022/01/15 05:17:36;;;;;;;1.37;0.90;;;;;;;8.69;50.50;98593.55;1740014;81;21526;-63
2022/01/15 05:20:04;;;;;;;1.85;0.88;;;;;;;8.69;50.48;98596.70;1718561;82;21031;-62
2022/01/15 05:22:31;;;;;;;1.07;0.90;;;;;;;8.68;50.48;98598.53;1717257;83;21062;-64
2022/01/15 05:24:58;;;;;;;1.67;0.90;;;;;;;8.69;50.48;98598.84;1721758;82;22341;-63
2022/01/15 05:27:24;;;;;;;1.75;0.78;;;;;;;8.70;50.43;98604.47;1726132;83;21077;-63
2022/01/15 05:29:51;;;;;;;1.20;0.75;;;;;;;8.70;50.46;98596.52;1749068;81;21073;-62
2022/01/15 05:32:19;;;;;;;1.07;0.90;;;;;;;8.70;50.46;98609.77;1739621;81;21690;-63
2022/01/15 05:34:46;;;;;;;1.98;1.05;;;;;;;8.71;50.45;98624.66;1703702;83;21013;-63
2022/01/15 05:37:13;;;;;;;1.15;1.00;;;;;;;8.71;50.42;98615.88;1703845;81;21213;-62
2022/01/15 05:39:39;;;;;;;1.05;0.90;;;;;;;8.70;50.42;98611.09;1725019;82;21021;-62
2022/01/15 05:42:07;;;;;;;1.10;0.98;;;;;;;8.71;50.41;98621.16;1713661;82;21090;-63
2022/01/15 05:44:34;;;;;;;1.45;0.90;;;;;;;8.71;50.41;98615.39;1704350;83;21066;-63
2022/01/15 05:47:02;;;;;;;1.45;0.80;;;;;;;8.73;50.38;98616.51;1711068;83;21506;-65
2022/01/15 05:49:29;;;;;;;1.30;0.80;;;;;;;8.71;50.38;98621.16;1686184;83;21080;-64
2022/01/15 05:51:56;;;;;;;1.47;0.90;;;;;;;8.72;50.38;98622.83;1707505;83;21139;-62
2022/01/15 05:54:22;;;;;;;1.30;1.10;;;;;;;8.72;50.37;98642.17;1698509;83;21641;-63
2022/01/15 05:56:49;;;;;;;1.87;1.10;;;;;;;8.72;50.35;98613.05;1711748;83;21041;-63
2022/01/15 05:59:16;;;;;;;1.00;0.80;;;;;;;8.72;50.35;98622.31;1703925;83;21680;-63
2022/01/15 06:01:42;;;;;;;0.80;0.80;;;;;;;8.73;50.34;98623.97;1746209;80;21186;-64
2022/01/15 06:04:08;;;;;;;1.17;1.00;;;;;;;8.73;50.34;98631.07;1707989;82;21847;-63
2022/01/15 06:06:35;;;;;;;1.87;1.00;;;;;;;8.73;50.32;98626.62;1750796;80;21053;-63
2022/01/15 06:09:02;;;;;;;1.77;0.90;;;;;;;8.73;50.32;98630.59;1768570;80;21058;-63
2022/01/15 06:11:31;;;;;;;1.30;0.90;;;;;;;8.74;50.31;98641.48;1766743;80;20979;-61
2022/01/15 06:13:57;;;;;;;1.20;1.00;;;;;;;8.74;50.30;98641.48;1745113;80;21148;-62
2022/01/15 06:16:24;;;;;;;1.45;0.98;;;;;;;8.73;50.30;98642.51;1746587;80;21030;-62
2022/01/15 06:18:50;;;;;;;1.25;0.90;;;;;;;8.75;50.29;98640.98;1716578;82;21542;-62
2022/01/15 06:21:17;;;;;;;1.45;1.00;;;;;;;8.76;50.29;98649.25;1763030;80;21019;-63
2022/01/15 06:23:43;;;;;;;1.10;0.90;;;;;;;8.77;50.30;98652.20;1766261;80;21052;-61
2022/01/15 06:26:09;;;;;;;0.98;0.90;;;;;;;8.76;50.27;98651.39;1752860;80;22835;-63
2022/01/15 06:28:36;;;;;;;0.98;0.82;;;;;;;8.77;50.24;98658.83;1759861;80;21033;-62
2022/01/15 06:31:02;;;;;;;1.00;0.90;;;;;;;8.77;50.24;98655.70;1746466;79;21086;-62
2022/01/15 06:33:28;;;;;;;1.52;0.95;;;;;;;8.77;50.23;98662.31;1748061;80;21288;-63
2022/01/15 06:35:55;;;;;;;1.65;0.82;;;;;;;8.79;50.24;98668.77;1756201;80;20998;-62
2022/01/15 06:38:21;;;;;;;0.80;0.80;;;;;;;8.80;50.21;98666.41;1762546;80;21106;-64
2022/01/15 06:40:47;;;;;;;1.00;0.88;;;;;;;8.80;50.18;98669.88;1750804;80;20999;-62
2022/01/15 06:43:14;;;;;;;1.40;1.00;;;;;;;8.81;50.18;98672.86;1711619;82;21604;-63
2022/01/15 06:45:40;;;;;;;1.75;0.98;;;;;;;8.82;50.17;98682.44;1761433;80;21085;-63
2022/01/15 06:48:06;;;;;;;1.42;1.05;;;;;;;8.82;50.14;98681.11;1747765;80;21074;-63
2022/01/15 06:50:33;;;;;;;0.72;0.72;;;;;;;8.84;50.14;98683.58;1745061;79;21091;-62
2022/01/15 06:53:00;;;;;;;1.22;0.98;;;;;;;8.83;50.11;98680.12;1743854;80;21570;-64
2022/01/15 06:55:26;;;;;;;1.40;1.00;;;;;;;8.85;50.09;98701.12;1749750;80;21046;-64
2022/01/15 06:57:53;;;;;;;1.22;1.02;;;;;;;8.85;50.10;98701.94;1748419;80;21023;-63
2022/01/15 07:00:19;;;;;;;1.32;1.07;;;;;;;8.86;50.08;98700.11;1756691;80;20995;-65
2022/01/15 07:02:47;;;;;;;1.40;1.15;;;;;;;8.87;50.07;98700.44;1746401;80;21112;-64
2022/01/15 07:05:13;;;;;;;1.55;0.98;;;;;;;8.88;50.08;98706.05;1708252;82;21019;-64
2022/01/15 07:07:45;;;;;;;1.10;0.88;;;;;;;8.89;50.05;98706.89;1744004;80;21065;-64
2022/01/15 07:10:09;;;;;;;1.45;0.80;;;;;;;8.89;50.04;98702.91;1743024;80;21139;-64
2022/01/15 07:12:35;;;;;;;1.10;0.82;;;;;;;8.90;50.03;98713.81;1759423;80;21002;-65
2022/01/15 07:15:02;;;;;;;1.30;0.90;;;;;;;8.92;50.04;98719.75;1750638;80;21139;-65
2022/01/15 07:17:29;;;;;;;1.30;1.00;;;;;;;8.92;50.00;98723.72;1748839;80;21030;-62
2022/01/15 07:19:55;;;;;;;1.07;0.90;;;;;;;8.94;49.98;98732.30;1756971;80;21510;-64
2022/01/15 07:22:21;;;;;;;1.45;1.10;;;;;;;8.94;49.96;98721.70;1744589;80;21093;-64
2022/01/15 07:24:48;;;;;;;1.35;1.07;;;;;;;8.94;49.95;98730.98;1755143;80;21050;-64
2022/01/15 07:27:14;;;;;;;1.35;0.88;;;;;;;8.94;49.95;98727.82;1723095;82;21910;-63
2022/01/15 07:29:41;;;;;;;1.30;0.90;;;;;;;8.96;49.93;98734.27;1745684;80;21004;-63
2022/01/15 07:32:08;;;;;;;1.07;0.98;;;;;;;8.97;49.92;98731.95;1763269;80;21010;-63
2022/01/15 07:34:34;;;;;;;1.82;1.00;;;;;;;8.97;49.92;98731.45;1755143;80;21530;-63
2022/01/15 07:37:01;;;;;;;1.62;1.30;;;;;;;8.98;49.92;98737.55;1760116;80;21093;-65
2022/01/15 07:39:27;;;;;;;0.82;0.80;;;;;;;9.00;49.89;98742.17;1744800;80;21542;-64
2022/01/15 07:41:55;;;;;;;1.40;0.90;;;;;;;9.00;49.89;98725.80;1767915;80;21559;-63
2022/01/15 07:44:22;;;;;;;1.52;0.88;;;;;;;9.02;49.87;98713.19;1755521;80;21053;-64
2022/01/15 07:46:49;;;;;;;1.45;0.93;;;;;;;9.03;49.84;98736.00;1748477;80;21598;-63
2022/01/15 07:49:16;;;;;;;1.27;1.10;;;;;;;9.04;49.86;98732.88;1753431;80;21081;-64
2022/01/15 07:51:42;;;;;;;1.15;0.95;;;;;;;9.05;49.83;98745.10;1750938;80;21147;-65
2022/01/15 07:54:08;;;;;;;1.52;0.93;;;;;;;9.06;49.80;98740.14;1767785;80;21101;-64
2022/01/15 07:56:36;;;;;;;1.20;1.10;;;;;;;9.06;49.82;98753.38;1766761;80;21136;-63
2022/01/15 07:59:03;;;;;;;1.10;0.98;;;;;;;9.07;49.79;98743.60;1751758;79;21448;-63
2022/01/15 08:01:29;;;;;;;1.40;0.98;;;;;;;9.03;49.78;98747.11;1752592;80;21109;-66
2022/01/15 08:03:56;;;;;;;1.40;1.10;;;;;;;9.07;49.78;98746.25;1757834;80;21119;-65
2022/01/15 08:06:24;;;;;;;1.92;1.00;;;;;;;9.07;49.79;98751.04;1758120;80;21066;-65
2022/01/15 08:08:51;;;;;;;1.70;1.02;;;;;;;9.08;49.91;98759.33;1745813;80;21110;-64
2022/01/15 08:11:17;;;;;;;1.37;1.10;;;;;;;9.08;50.05;98755.34;1757670;80;21010;-67
2022/01/15 08:13:44;;;;;;;1.22;1.05;;;;;;;9.10;50.10;98765.73;1758270;80;21049;-66
2022/01/15 08:16:12;;;;;;;1.77;1.07;;;;;;;9.10;50.11;98761.28;1770306;80;21093;-66
2022/01/15 08:18:40;;;;;;;1.70;1.00;;;;;;;9.10;50.11;98751.17;1761015;80;21089;-63
2022/01/15 08:21:07;;;;;;;1.72;0.93;;;;;;;9.11;50.10;98785.44;1758126;80;21038;-62
2022/01/15 08:23:35;;;;;;;2.33;1.10;;;;;;;9.11;50.09;98778.00;1758844;80;21058;-65
2022/01/15 08:26:03;;;;;;;2.25;1.10;;;;;;;9.11;50.06;98777.48;1762051;80;21018;-63
2022/01/15 08:28:29;;;;;;;1.52;1.00;;;;;;;9.12;50.05;98779.14;1749999;80;22425;-63
2022/01/15 08:30:56;;;;;;;1.10;1.00;;;;;;;9.13;50.03;98787.40;1747956;80;21061;-64
2022/01/15 08:33:22;;;;;;;1.45;0.90;;;;;;;9.13;50.02;98780.77;1751447;80;21106;-63
2022/01/15 08:35:49;;;;;;;0.93;0.78;;;;;;;9.13;50.00;98779.45;1716847;82;21134;-67
2022/01/15 08:38:15;;;;;;;1.37;1.05;;;;;;;9.14;49.96;98791.70;1763765;80;21007;-63
2022/01/15 08:40:42;;;;;;;1.42;1.10;;;;;;;9.15;49.96;98788.03;1764803;80;22102;-65
2022/01/15 08:43:08;;;;;;;1.75;1.10;;;;;;;9.17;49.94;98797.95;1766124;80;21042;-67
2022/01/15 08:45:37;;;;;;;1.27;0.90;;;;;;;9.19;49.90;98802.59;1762405;80;21054;-66
2022/01/15 08:48:04;;;;;;;2.87;0.90;;;;;;;9.21;49.87;98792.63;1768085;80;21027;-67
2022/01/15 08:50:30;;;;;;;1.00;0.90;;;;;;;9.21;49.83;98805.88;1730829;82;21098;-68
2022/01/15 08:52:57;;;;;;;1.37;1.00;;;;;;;9.24;49.81;98812.64;1771431;80;21201;-66
2022/01/15 08:55:28;;;;;;;1.15;1.00;;;;;;;9.25;49.78;98811.14;1779557;80;21634;-67
2022/01/15 08:57:52;;;;;;;1.85;1.10;;;;;;;9.26;49.75;98790.75;1753276;80;21053;-67
2022/01/15 09:00:18;;;;;;;1.17;1.07;;;;;;;9.28;49.73;98803.83;1768082;80;21022;-66
2022/01/15 09:02:45;;;;;;;1.22;0.80;;;;;;;9.29;49.71;98802.80;1771689;80;21045;-66
2022/01/15 09:05:11;;;;;;;1.10;0.95;;;;;;;9.31;49.68;98803.44;1760314;80;21063;-66
2022/01/15 09:07:37;;;;;;;1.12;0.80;;;;;;;9.32;49.68;98806.42;1736639;82;21023;-66
2022/01/15 09:10:06;;;;;;;1.65;1.10;;;;;;;9.34;49.64;98816.34;1761727;80;21003;-66
2022/01/15 09:12:34;;;;;;;0.90;0.90;;;;;;;9.34;49.63;98818.48;1766160;80;21038;-66
2022/01/15 09:15:01;;;;;;;1.37;0.90;;;;;;;9.36;49.63;98818.30;1761907;80;21138;-66
2022/01/15 09:17:28;;;;;;;0.80;0.80;;;;;;;9.36;49.60;98819.12;1770396;80;21061;-66
2022/01/15 09:19:54;;;;;;;1.32;0.93;;;;;;;9.39;49.59;98824.58;1773995;80;21053;-65
2022/01/15 09:22:21;;;;;;;1.70;1.10;;;;;;;9.40;49.58;98822.23;1772848;80;21101;-66
2022/01/15 09:24:48;;;;;;;1.30;1.10;;;;;;;9.42;49.57;98822.87;1728165;82;21058;-67
2022/01/15 09:30:14;;;;;;;1.70;1.15;;;;;;;9.43;49.51;98821.36;1721449;80;21140;-66
2022/01/15 09:32:42;;;;;;;1.02;0.90;;;;;;;9.46;49.48;98832.09;1760912;80;21625;-67
2022/01/15 09:35:10;;;;;;;1.02;0.80;;;;;;;9.48;49.51;98839.88;1765635;80;21562;-67
2022/01/15 09:37:36;;;;;;;0.93;0.80;;;;;;;9.49;49.48;98825.11;1755251;80;21077;-67
2022/01/15 09:40:04;;;;;;;0.90;0.80;;;;;;;9.51;49.46;98840.84;1761492;80;21044;-67
2022/01/15 09:42:33;;;;;;;0.82;0.82;;;;;;;9.51;49.44;98837.68;1762945;80;21097;-65
2022/01/15 09:45:00;;;;;;;1.77;1.00;;;;;;;9.53;49.45;98840.97;1767287;80;21089;-68
2022/01/15 09:47:27;;;;;;;1.60;1.00;;;;;;;9.56;49.43;98838.45;1761495;80;20999;-67
2022/01/15 09:49:53;;;;;;;0.95;0.88;;;;;;;9.57;49.44;98839.59;1759466;80;21014;-68
2022/01/15 09:52:20;;;;;;;1.27;1.17;;;;;;;9.59;49.40;98831.46;1746994;80;21144;-66
2022/01/15 09:54:46;;;;;;;1.32;1.00;;;;;;;9.61;49.39;98846.69;1751698;80;21042;-66
2022/01/15 09:57:12;;;;;;;1.65;1.02;;;;;;;9.64;49.36;98847.14;1767741;80;21642;-64
2022/01/15 09:59:39;;;;;;;1.20;0.98;;;;;;;9.66;49.35;98835.03;1751720;80;21325;-66
2022/01/15 10:02:05;;;;;;;1.00;0.80;;;;;;;9.70;49.28;98839.47;1749179;80;21515;-66
2022/01/15 10:04:32;;;;;;;1.20;1.00;;;;;;;9.75;49.28;98830.44;1749602;80;21034;-65
2022/01/15 10:07:22;;;;;;;1.05;0.95;;;;;;;9.78;49.22;98838.03;1764963;80;23249;-65
2022/01/15 10:09:50;;;;;;;1.00;0.95;;;;;;;9.83;49.13;98833.82;1771830;80;21551;-65
2022/01/15 10:12:30;;;;;;;1.10;1.00;;;;;;;9.89;49.07;98845.52;1758475;80;21101;-66
2022/01/15 10:15:00;;;;;;;1.45;0.80;;;;;;;9.93;49.04;98845.47;1752328;80;21086;-66
2022/01/15 10:17:29;;;;;;;1.37;0.93;;;;;;;9.97;49.00;98861.33;1752643;80;21110;-65
2022/01/15 10:19:59;;;;;;;1.07;0.98;;;;;;;10.00;48.96;98854.31;1748552;80;21111;-66
2022/01/15 10:22:27;;;;;;;1.67;1.00;;;;;;;10.04;48.91;98852.11;1752325;80;21775;-65
2022/01/15 10:25:02;;;;;;;1.50;1.02;;;;;;;10.07;48.87;98849.09;1747959;80;21042;-65
2022/01/15 10:27:36;;;;;;;1.40;1.00;;;;;;;10.09;48.83;98852.89;1726316;82;21151;-65
2022/01/15 10:30:20;;;;;;;1.62;1.00;;;;;;;10.11;48.80;98855.67;1756553;80;21554;-66
2022/01/15 10:33:05;;;;;;;0.70;0.70;;;;;;;10.13;48.79;98871.41;1763992;80;21215;-66
2022/01/15 10:35:39;;;;;;;1.75;1.10;;;;;;;10.13;48.76;98872.73;1760308;80;21026;-66
2022/01/15 10:38:14;;;;;;;1.45;1.00;;;;;;;10.13;48.78;98880.19;1750542;80;21105;-67
2022/01/15 10:40:45;;;;;;;1.37;1.10;;;;;;;10.13;48.79;98896.11;1752586;80;21060;-66
2022/01/15 10:43:15;;;;;;;1.47;1.15;;;;;;;10.12;48.79;98870.59;1763169;80;21062;-66
2022/01/15 10:45:54;;;;;;;1.32;1.02;;;;;;;10.13;48.78;98884.68;1772892;80;21116;-68
2022/01/15 10:48:27;;;;;;;1.77;1.00;;;;;;;10.13;48.79;98876.72;1760154;80;21686;-67
2022/01/15 10:51:03;;;;;;;1.40;0.95;;;;;;;10.12;48.79;98881.70;1752714;80;21687;-67
2022/01/15 10:53:41;;;;;;;1.12;1.00;;;;;;;10.12;48.82;98877.23;1763510;80;21029;-66
2022/01/15 10:56:10;;;;;;;1.95;1.12;;;;;;;10.12;48.82;98879.89;1772416;80;21650;-65
2022/01/15 10:58:37;;;;;;;1.85;0.90;;;;;;;10.12;48.81;98880.37;1760096;80;21934;-66
2022/01/15 11:01:04;;;;;;;1.20;1.10;;;;;;;10.13;48.81;98882.03;1767997;80;22116;-66
2022/01/15 11:03:40;;;;;;;1.27;0.98;;;;;;;10.14;48.81;98878.34;1768520;80;21549;-66
2022/01/15 11:06:07;;;;;;;1.30;0.98;;;;;;;10.15;48.81;98876.84;1766213;80;21077;-65
2022/01/15 11:08:36;;;;;;;1.05;0.95;;;;;;;10.19;48.79;98878.63;1764252;80;21553;-65
2022/01/15 11:11:08;;;;;;;1.17;0.90;;;;;;;10.22;48.73;98871.11;1781665;80;21123;-65
2022/01/15 11:13:41;;;;;;;1.40;1.30;;;;;;;10.26;48.68;98880.86;1780383;80;21483;-65
2022/01/15 11:16:19;;;;;;;1.72;1.20;;;;;;;10.30;48.66;98878.66;1779574;80;21472;-67
2022/01/15 11:18:49;;;;;;;1.52;1.10;;;;;;;10.35;48.62;98890.88;1757286;80;21021;-66
2022/01/15 11:21:18;;;;;;;1.10;1.00;;;;;;;10.38;48.58;98884.69;1770472;80;20997;-66
2022/01/15 11:23:45;;;;;;;2.08;1.15;;;;;;;10.42;48.51;98895.25;1756097;80;21149;-65
2022/01/15 11:26:15;;;;;;;2.00;1.32;;;;;;;10.47;48.45;98883.23;1759596;80;21055;-66
2022/01/15 11:28:47;;;;;;;2.05;1.10;;;;;;;10.50;48.43;98892.16;1753027;80;21050;-66
2022/01/15 11:31:15;;;;;;;1.25;1.00;;;;;;;10.53;48.40;98901.09;1775533;80;21008;-65
2022/01/15 11:33:51;;;;;;;2.20;1.40;;;;;;;10.55;48.33;98907.04;1780543;80;21037;-65
2022/01/15 11:36:38;;;;;;;1.35;1.20;;;;;;;10.55;48.31;98901.22;1758116;80;21099;-66
2022/01/15 11:39:10;;;;;;;1.60;1.10;;;;;;;10.55;48.32;98896.42;1756202;80;21073;-68
2022/01/15 11:41:39;;;;;;;0.98;0.90;;;;;;;10.55;48.31;98904.38;1757010;80;21012;-65
2022/01/15 11:44:33;;;;;;;1.20;1.00;;;;;;;10.55;48.32;98915.01;1763611;80;21011;-66
2022/01/15 11:47:13;;;;;;;1.20;1.10;;;;;;;10.55;48.34;98914.50;1748797;80;21520;-66
2022/01/15 11:49:49;;;;;;;0.93;0.90;;;;;;;10.54;48.36;98909.36;1756996;80;21153;-66
2022/01/15 11:52:22;;;;;;;1.30;1.20;;;;;;;10.53;48.38;98918.36;1758450;80;21042;-66
2022/01/15 11:55:04;;;;;;;1.22;1.00;;;;;;;10.53;48.35;98929.80;1758425;80;21138;-65
2022/01/15 11:57:34;;;;;;;1.10;0.98;;;;;;;10.52;48.36;98934.77;1766270;80;21491;-65
2022/01/15 12:00:06;;;;;;;1.25;1.15;;;;;;;10.51;48.37;98925.18;1756372;80;21554;-67
2022/01/15 12:02:38;;;;;;;2.52;1.30;;;;;;;10.51;48.37;98923.04;1756334;80;25582;-65
2022/01/15 12:05:25;;;;;;;1.07;0.90;;;;;;;10.49;48.39;98931.19;1747819;80;21541;-66